sensor_id;sensor_type;location;lat;lon;timestamp;temperature;humidity
15328;DHT22;7764;51.430;6.840;2023-04-24T00:01:59;12.50;99.90
15328;DHT22;7764;51.430;6.840;2023-04-24T00:04:26;12.50;99.90
15328;DHT22;7764;51.430;6.840;2023-04-24T00:06:53;12.50;99.90
15328;DHT22;7764;51.430;6.840;2023-04-24T00:09:22;12.50;99.90
15328;DHT22;7764;51.430;6.840;2023-04-24T00:11:51;12.50;99.90
15328;DHT22;7764;51.430;6.840;2023-04-24T00:14:18;12.60;99.90
15328;DHT22;7764;51.430;6.840;2023-04-24T00:16:44;12.50;99.90
15328;DHT22;7764;51.430;6.840;2023-04-24T00:19:11;12.50;99.90
15328;DHT22;7764;51.430;6.840;2023-04-24T00:21:38;12.40;99.90
15328;DHT22;7764;51.430;6.840;2023-04-24T00:24:06;12.40;99.90
15328;DHT22;7764;51.430;6.840;2023-04-24T00:26:34;12.40;99.90
15328;DHT22;7764;51.430;6.840;2023-04-24T00:29:02;12.30;99.90
15328;DHT22;7764;51.430;6.840;2023-04-24T00:31:29;12.30;99.90
15328;DHT22;7764;51.430;6.840;2023-04-24T00:33:56;12.30;99.90
15328;DHT22;7764;51.430;6.840;2023-04-24T00:36:23;12.40;99.90
15328;DHT22;7764;51.430;6.840;2023-04-24T00:38:50;12.30;99.90
15328;DHT22;7764;51.430;6.840;2023-04-24T00:41:17;12.30;99.90
15328;DHT22;7764;51.430;6.840;2023-04-24T00:43:44;12.30;99.90
15328;DHT22;7764;51.430;6.840;2023-04-24T00:46:13;12.30;99.90
15328;DHT22;7764;51.430;6.840;2023-04-24T00:48:40;12.20;99.90
15328;DHT22;7764;51.430;6.840;2023-04-24T00:51:07;12.20;99.90
15328;DHT22;7764;51.430;6.840;2023-04-24T00:53:34;12.10;99.90
15328;DHT22;7764;51.430;6.840;2023-04-24T00:56:01;12.10;99.90
15328;DHT22;7764;51.430;6.840;2023-04-24T00:58:29;12.10;99.90
15328;DHT22;7764;51.430;6.840;2023-04-24T01:00:56;12.10;99.90
15328;DHT22;7764;51.430;6.840;2023-04-24T01:03:28;12.00;99.90
15328;DHT22;7764;51.430;6.840;2023-04-24T01:05:55;12.00;99.90
15328;DHT22;7764;51.430;6.840;2023-04-24T01:08:24;12.00;99.90
15328;DHT22;7764;51.430;6.840;2023-04-24T01:10:51;12.00;99.90
15328;DHT22;7764;51.430;6.840;2023-04-24T01:13:18;11.90;99.90
15328;DHT22;7764;51.430;6.840;2023-04-24T01:15:45;11.70;99.90
15328;DHT22;7764;51.430;6.840;2023-04-24T01:18:12;11.70;99.90
15328;DHT22;7764;51.430;6.840;2023-04-24T01:20:41;11.60;99.90
15328;DHT22;7764;51.430;6.840;2023-04-24T01:23:11;11.60;99.90
15328;DHT22;7764;51.430;6.840;2023-04-24T01:25:38;11.50;99.90
15328;DHT22;7764;51.430;6.840;2023-04-24T01:28:05;11.50;99.90
15328;DHT22;7764;51.430;6.840;2023-04-24T01:30:32;11.50;99.90
15328;DHT22;7764;51.430;6.840;2023-04-24T01:32:59;11.50;99.90
15328;DHT22;7764;51.430;6.840;2023-04-24T01:35:26;11.50;99.90
15328;DHT22;7764;51.430;6.840;2023-04-24T01:37:53;11.40;99.90
15328;DHT22;7764;51.430;6.840;2023-04-24T01:40:21;11.30;99.90
15328;DHT22;7764;51.430;6.840;2023-04-24T01:42:48;11.30;99.90
15328;DHT22;7764;51.430;6.840;2023-04-24T01:45:15;11.20;99.90
15328;DHT22;7764;51.430;6.840;2023-04-24T01:47:42;11.30;99.90
15328;DHT22;7764;51.430;6.840;2023-04-24T01:50:09;11.20;99.90
15328;DHT22;7764;51.430;6.840;2023-04-24T01:52:36;11.20;99.90
15328;DHT22;7764;51.430;6.840;2023-04-24T01:55:04;11.20;99.90
15328;DHT22;7764;51.430;6.840;2023-04-24T01:57:34;11.20;99.90
15328;DHT22;7764;51.430;6.840;2023-04-24T02:00:01;11.20;99.90
15328;DHT22;7764;51.430;6.840;2023-04-24T02:02:30;11.20;99.90
15328;DHT22;7764;51.430;6.840;2023-04-24T02:04:57;11.20;99.90
15328;DHT22;7764;51.430;6.840;2023-04-24T02:07:24;11.20;99.90
15328;DHT22;7764;51.430;6.840;2023-04-24T02:09:51;11.10;99.90
15328;DHT22;7764;51.430;6.840;2023-04-24T02:12:17;11.20;99.90
15328;DHT22;7764;51.430;6.840;2023-04-24T02:14:46;11.20;99.90
15328;DHT22;7764;51.430;6.840;2023-04-24T02:17:13;11.20;99.90
15328;DHT22;7764;51.430;6.840;2023-04-24T02:19:41;11.10;99.90
15328;DHT22;7764;51.430;6.840;2023-04-24T02:22:08;11.20;99.90
15328;DHT22;7764;51.430;6.840;2023-04-24T02:24:36;11.10;99.90
15328;DHT22;7764;51.430;6.840;2023-04-24T02:27:03;11.10;99.90
15328;DHT22;7764;51.430;6.840;2023-04-24T02:29:29;11.10;99.90
15328;DHT22;7764;51.430;6.840;2023-04-24T02:31:58;11.10;99.90
15328;DHT22;7764;51.430;6.840;2023-04-24T02:34:25;11.10;99.90
15328;DHT22;7764;51.430;6.840;2023-04-24T02:36:52;11.10;99.90
15328;DHT22;7764;51.430;6.840;2023-04-24T02:39:19;11.10;99.90
15328;DHT22;7764;51.430;6.840;2023-04-24T02:41:46;11.10;99.90
15328;DHT22;7764;51.430;6.840;2023-04-24T02:44:13;11.10;99.90
15328;DHT22;7764;51.430;6.840;2023-04-24T02:46:40;11.10;99.90
15328;DHT22;7764;51.430;6.840;2023-04-24T02:49:08;11.10;99.90
15328;DHT22;7764;51.430;6.840;2023-04-24T02:51:37;11.10;99.90
15328;DHT22;7764;51.430;6.840;2023-04-24T02:54:06;11.10;99.90
15328;DHT22;7764;51.430;6.840;2023-04-24T02:56:33;11.10;99.90
15328;DHT22;7764;51.430;6.840;2023-04-24T02:59:00;11.00;99.90
15328;DHT22;7764;51.430;6.840;2023-04-24T03:01:27;11.10;99.90
15328;DHT22;7764;51.430;6.840;2023-04-24T03:03:54;11.10;99.90
15328;DHT22;7764;51.430;6.840;2023-04-24T03:06:22;11.00;99.90
15328;DHT22;7764;51.430;6.840;2023-04-24T03:08:49;11.00;99.90
15328;DHT22;7764;51.430;6.840;2023-04-24T03:11:15;11.00;99.90
15328;DHT22;7764;51.430;6.840;2023-04-24T03:13:42;11.00;99.90
15328;DHT22;7764;51.430;6.840;2023-04-24T03:16:09;11.10;99.90
15328;DHT22;7764;51.430;6.840;2023-04-24T03:18:36;11.10;99.90
15328;DHT22;7764;51.430;6.840;2023-04-24T03:21:03;11.00;99.90
15328;DHT22;7764;51.430;6.840;2023-04-24T03:23:31;11.00;99.90
15328;DHT22;7764;51.430;6.840;2023-04-24T03:25:58;11.00;99.90
15328;DHT22;7764;51.430;6.840;2023-04-24T03:28:25;11.10;99.90
15328;DHT22;7764;51.430;6.840;2023-04-24T03:30:52;11.10;99.90
15328;DHT22;7764;51.430;6.840;2023-04-24T03:33:19;11.10;99.90
15328;DHT22;7764;51.430;6.840;2023-04-24T03:35:45;11.10;99.90
15328;DHT22;7764;51.430;6.840;2023-04-24T03:38:12;11.20;99.90
15328;DHT22;7764;51.430;6.840;2023-04-24T03:40:40;11.10;99.90
15328;DHT22;7764;51.430;6.840;2023-04-24T03:43:07;11.10;99.90
15328;DHT22;7764;51.430;6.840;2023-04-24T03:45:34;11.10;99.90
15328;DHT22;7764;51.430;6.840;2023-04-24T03:48:01;11.10;99.90
15328;DHT22;7764;51.430;6.840;2023-04-24T03:50:28;11.10;99.90
15328;DHT22;7764;51.430;6.840;2023-04-24T03:52:55;11.20;99.90
15328;DHT22;7764;51.430;6.840;2023-04-24T03:55:22;11.20;99.90
15328;DHT22;7764;51.430;6.840;2023-04-24T03:57:50;11.30;99.90
15328;DHT22;7764;51.430;6.840;2023-04-24T04:00:17;11.20;99.90
15328;DHT22;7764;51.430;6.840;2023-04-24T04:02:44;11.20;99.90
15328;DHT22;7764;51.430;6.840;2023-04-24T04:05:10;11.20;99.90
15328;DHT22;7764;51.430;6.840;2023-04-24T04:07:37;11.20;99.90
15328;DHT22;7764;51.430;6.840;2023-04-24T04:10:05;11.10;99.90
15328;DHT22;7764;51.430;6.840;2023-04-24T04:12:33;11.10;99.90
15328;DHT22;7764;51.430;6.840;2023-04-24T04:15:02;11.20;99.90
15328;DHT22;7764;51.430;6.840;2023-04-24T04:17:30;11.10;99.90
15328;DHT22;7764;51.430;6.840;2023-04-24T04:19:56;11.10;99.90
15328;DHT22;7764;51.430;6.840;2023-04-24T04:22:24;11.10;99.90
15328;DHT22;7764;51.430;6.840;2023-04-24T04:24:50;11.10;99.90
15328;DHT22;7764;51.430;6.840;2023-04-24T04:27:17;11.20;99.90
15328;DHT22;7764;51.430;6.840;2023-04-24T04:29:44;11.10;99.90
15328;DHT22;7764;51.430;6.840;2023-04-24T04:32:12;11.20;99.90
15328;DHT22;7764;51.430;6.840;2023-04-24T04:34:40;11.10;99.90
15328;DHT22;7764;51.430;6.840;2023-04-24T04:37:08;11.20;99.90
15328;DHT22;7764;51.430;6.840;2023-04-24T04:39:36;11.30;99.90
15328;DHT22;7764;51.430;6.840;2023-04-24T04:42:03;11.20;99.90
15328;DHT22;7764;51.430;6.840;2023-04-24T04:44:29;11.10;99.90
15328;DHT22;7764;51.430;6.840;2023-04-24T04:46:56;11.20;99.90
15328;DHT22;7764;51.430;6.840;2023-04-24T04:49:26;11.20;99.90
15328;DHT22;7764;51.430;6.840;2023-04-24T04:51:53;11.20;99.90
15328;DHT22;7764;51.430;6.840;2023-04-24T04:54:20;11.20;99.90
15328;DHT22;7764;51.430;6.840;2023-04-24T04:56:49;11.10;99.90
15328;DHT22;7764;51.430;6.840;2023-04-24T04:59:16;11.20;99.90
15328;DHT22;7764;51.430;6.840;2023-04-24T05:01:43;11.10;99.90
15328;DHT22;7764;51.430;6.840;2023-04-24T05:04:10;11.10;99.90
15328;DHT22;7764;51.430;6.840;2023-04-24T05:06:38;11.20;99.90
15328;DHT22;7764;51.430;6.840;2023-04-24T05:09:05;11.10;99.90
15328;DHT22;7764;51.430;6.840;2023-04-24T05:11:33;11.10;99.90
15328;DHT22;7764;51.430;6.840;2023-04-24T05:13:59;11.10;99.90
15328;DHT22;7764;51.430;6.840;2023-04-24T05:16:26;11.10;99.90
15328;DHT22;7764;51.430;6.840;2023-04-24T05:18:53;11.10;99.90
15328;DHT22;7764;51.430;6.840;2023-04-24T05:21:20;11.00;99.90
15328;DHT22;7764;51.430;6.840;2023-04-24T05:23:48;11.00;99.90
15328;DHT22;7764;51.430;6.840;2023-04-24T05:26:15;11.00;99.90
15328;DHT22;7764;51.430;6.840;2023-04-24T05:28:43;10.90;99.90
15328;DHT22;7764;51.430;6.840;2023-04-24T05:31:10;10.80;99.90
15328;DHT22;7764;51.430;6.840;2023-04-24T05:33:38;10.70;99.90
15328;DHT22;7764;51.430;6.840;2023-04-24T05:36:06;10.70;99.90
15328;DHT22;7764;51.430;6.840;2023-04-24T05:38:33;10.60;99.90
15328;DHT22;7764;51.430;6.840;2023-04-24T05:41:01;10.60;99.90
15328;DHT22;7764;51.430;6.840;2023-04-24T05:43:28;10.60;99.90
15328;DHT22;7764;51.430;6.840;2023-04-24T05:45:55;10.50;99.90
15328;DHT22;7764;51.430;6.840;2023-04-24T05:48:22;10.40;99.90
15328;DHT22;7764;51.430;6.840;2023-04-24T05:50:49;10.50;99.90
15328;DHT22;7764;51.430;6.840;2023-04-24T05:53:17;10.50;99.90
15328;DHT22;7764;51.430;6.840;2023-04-24T05:55:44;10.60;99.90
15328;DHT22;7764;51.430;6.840;2023-04-24T05:58:13;10.50;99.90
15328;DHT22;7764;51.430;6.840;2023-04-24T06:00:40;10.60;99.90
15328;DHT22;7764;51.430;6.840;2023-04-24T06:03:08;10.70;99.90
15328;DHT22;7764;51.430;6.840;2023-04-24T06:05:35;10.60;99.90
15328;DHT22;7764;51.430;6.840;2023-04-24T06:08:02;10.50;99.90
15328;DHT22;7764;51.430;6.840;2023-04-24T06:10:28;10.50;99.90
15328;DHT22;7764;51.430;6.840;2023-04-24T06:12:55;10.60;99.90
15328;DHT22;7764;51.430;6.840;2023-04-24T06:15:28;10.60;99.90
15328;DHT22;7764;51.430;6.840;2023-04-24T06:17:55;10.60;99.90
15328;DHT22;7764;51.430;6.840;2023-04-24T06:20:23;10.60;99.90
15328;DHT22;7764;51.430;6.840;2023-04-24T06:22:50;10.50;99.90
15328;DHT22;7764;51.430;6.840;2023-04-24T06:25:16;10.50;99.90
15328;DHT22;7764;51.430;6.840;2023-04-24T06:27:43;10.50;99.90
15328;DHT22;7764;51.430;6.840;2023-04-24T06:30:11;10.50;99.90
15328;DHT22;7764;51.430;6.840;2023-04-24T06:32:40;10.50;99.90
15328;DHT22;7764;51.430;6.840;2023-04-24T06:35:07;10.50;99.90
15328;DHT22;7764;51.430;6.840;2023-04-24T06:37:35;10.60;99.90
15328;DHT22;7764;51.430;6.840;2023-04-24T06:40:02;10.50;99.90
15328;DHT22;7764;51.430;6.840;2023-04-24T06:42:29;10.60;99.90
15328;DHT22;7764;51.430;6.840;2023-04-24T06:44:56;10.40;99.90
15328;DHT22;7764;51.430;6.840;2023-04-24T06:47:23;10.50;99.90
15328;DHT22;7764;51.430;6.840;2023-04-24T06:49:51;10.50;99.90
15328;DHT22;7764;51.430;6.840;2023-04-24T06:52:18;10.40;99.90
15328;DHT22;7764;51.430;6.840;2023-04-24T06:54:45;10.40;99.90
15328;DHT22;7764;51.430;6.840;2023-04-24T06:57:12;10.60;99.90
15328;DHT22;7764;51.430;6.840;2023-04-24T06:59:39;10.60;99.90
15328;DHT22;7764;51.430;6.840;2023-04-24T07:02:06;10.60;99.90
15328;DHT22;7764;51.430;6.840;2023-04-24T07:04:32;10.60;99.90
15328;DHT22;7764;51.430;6.840;2023-04-24T07:07:00;10.50;99.90
15328;DHT22;7764;51.430;6.840;2023-04-24T07:09:27;10.60;99.90
15328;DHT22;7764;51.430;6.840;2023-04-24T07:11:54;10.70;99.90
15328;DHT22;7764;51.430;6.840;2023-04-24T07:14:22;10.60;99.90
15328;DHT22;7764;51.430;6.840;2023-04-24T07:16:49;10.50;99.90
15328;DHT22;7764;51.430;6.840;2023-04-24T07:19:16;10.50;99.90
15328;DHT22;7764;51.430;6.840;2023-04-24T07:21:43;10.60;99.90
15328;DHT22;7764;51.430;6.840;2023-04-24T07:24:12;10.50;99.90
15328;DHT22;7764;51.430;6.840;2023-04-24T07:26:39;10.60;99.90
15328;DHT22;7764;51.430;6.840;2023-04-24T07:29:06;10.50;99.90
15328;DHT22;7764;51.430;6.840;2023-04-24T07:31:33;10.50;99.90
15328;DHT22;7764;51.430;6.840;2023-04-24T07:34:01;10.60;99.90
15328;DHT22;7764;51.430;6.840;2023-04-24T07:36:27;10.60;99.90
15328;DHT22;7764;51.430;6.840;2023-04-24T07:38:55;10.50;99.90
15328;DHT22;7764;51.430;6.840;2023-04-24T07:41:24;10.50;99.90
15328;DHT22;7764;51.430;6.840;2023-04-24T07:43:51;10.50;99.90
15328;DHT22;7764;51.430;6.840;2023-04-24T07:46:18;10.60;99.90
15328;DHT22;7764;51.430;6.840;2023-04-24T07:48:45;10.60;99.90
15328;DHT22;7764;51.430;6.840;2023-04-24T07:51:14;10.60;99.90
15328;DHT22;7764;51.430;6.840;2023-04-24T07:53:42;10.40;99.90
15328;DHT22;7764;51.430;6.840;2023-04-24T07:56:09;10.30;99.90
15328;DHT22;7764;51.430;6.840;2023-04-24T07:58:37;10.40;99.90
15328;DHT22;7764;51.430;6.840;2023-04-24T08:01:04;10.30;99.90
15328;DHT22;7764;51.430;6.840;2023-04-24T08:03:31;10.20;99.90
15328;DHT22;7764;51.430;6.840;2023-04-24T08:05:57;10.30;99.90
15328;DHT22;7764;51.430;6.840;2023-04-24T08:08:24;10.30;99.90
15328;DHT22;7764;51.430;6.840;2023-04-24T08:10:51;10.20;99.90
15328;DHT22;7764;51.430;6.840;2023-04-24T08:13:18;10.20;99.90
15328;DHT22;7764;51.430;6.840;2023-04-24T08:15:50;10.20;99.90
15328;DHT22;7764;51.430;6.840;2023-04-24T08:18:16;10.20;99.90
15328;DHT22;7764;51.430;6.840;2023-04-24T08:20:43;10.10;99.90
15328;DHT22;7764;51.430;6.840;2023-04-24T08:23:10;10.10;99.90
15328;DHT22;7764;51.430;6.840;2023-04-24T08:25:37;10.10;99.90
15328;DHT22;7764;51.430;6.840;2023-04-24T08:28:06;10.20;99.90
15328;DHT22;7764;51.430;6.840;2023-04-24T08:30:33;10.30;99.90
15328;DHT22;7764;51.430;6.840;2023-04-24T08:33:01;10.30;99.90
15328;DHT22;7764;51.430;6.840;2023-04-24T08:35:28;10.20;99.90
15328;DHT22;7764;51.430;6.840;2023-04-24T08:37:55;10.20;99.90
15328;DHT22;7764;51.430;6.840;2023-04-24T08:40:28;10.20;99.90
15328;DHT22;7764;51.430;6.840;2023-04-24T08:42:55;10.20;99.90
15328;DHT22;7764;51.430;6.840;2023-04-24T08:45:23;10.30;99.90
15328;DHT22;7764;51.430;6.840;2023-04-24T08:47:52;10.40;99.90
15328;DHT22;7764;51.430;6.840;2023-04-24T08:50:21;10.40;99.90
15328;DHT22;7764;51.430;6.840;2023-04-24T08:52:50;10.50;99.90
15328;DHT22;7764;51.430;6.840;2023-04-24T08:55:18;10.50;99.90
15328;DHT22;7764;51.430;6.840;2023-04-24T08:57:48;10.60;99.90
15328;DHT22;7764;51.430;6.840;2023-04-24T09:00:17;10.70;99.90
15328;DHT22;7764;51.430;6.840;2023-04-24T09:02:45;10.70;99.90
15328;DHT22;7764;51.430;6.840;2023-04-24T09:05:14;10.80;99.90
15328;DHT22;7764;51.430;6.840;2023-04-24T09:07:45;10.60;99.90
15328;DHT22;7764;51.430;6.840;2023-04-24T09:10:13;10.60;99.90
15328;DHT22;7764;51.430;6.840;2023-04-24T09:12:41;10.50;99.90
15328;DHT22;7764;51.430;6.840;2023-04-24T09:15:09;10.30;99.90
15328;DHT22;7764;51.430;6.840;2023-04-24T09:17:36;10.20;99.90
15328;DHT22;7764;51.430;6.840;2023-04-24T09:20:04;10.10;99.90
15328;DHT22;7764;51.430;6.840;2023-04-24T09:22:31;10.20;99.90
15328;DHT22;7764;51.430;6.840;2023-04-24T09:25:07;10.20;99.90
15328;DHT22;7764;51.430;6.840;2023-04-24T09:27:34;10.10;99.90
15328;DHT22;7764;51.430;6.840;2023-04-24T09:30:02;10.00;99.90
15328;DHT22;7764;51.430;6.840;2023-04-24T09:32:29;10.00;99.90
15328;DHT22;7764;51.430;6.840;2023-04-24T09:35:10;10.00;99.90
15328;DHT22;7764;51.430;6.840;2023-04-24T09:37:39;9.90;99.90
15328;DHT22;7764;51.430;6.840;2023-04-24T09:40:15;9.90;99.90
15328;DHT22;7764;51.430;6.840;2023-04-24T09:42:46;9.90;99.90
15328;DHT22;7764;51.430;6.840;2023-04-24T09:45:17;10.00;99.90
15328;DHT22;7764;51.430;6.840;2023-04-24T09:47:44;10.00;99.90
15328;DHT22;7764;51.430;6.840;2023-04-24T09:50:16;9.90;99.90
15328;DHT22;7764;51.430;6.840;2023-04-24T09:52:45;10.00;99.90
15328;DHT22;7764;51.430;6.840;2023-04-24T09:55:18;10.00;99.90
15328;DHT22;7764;51.430;6.840;2023-04-24T09:57:50;10.10;99.90
15328;DHT22;7764;51.430;6.840;2023-04-24T10:00:24;9.90;99.90
15328;DHT22;7764;51.430;6.840;2023-04-24T10:02:59;10.00;99.90
15328;DHT22;7764;51.430;6.840;2023-04-24T10:05:31;9.90;99.90
15328;DHT22;7764;51.430;6.840;2023-04-24T10:08:00;9.90;99.90
15328;DHT22;7764;51.430;6.840;2023-04-24T10:10:29;9.90;99.90
15328;DHT22;7764;51.430;6.840;2023-04-24T10:12:57;9.80;99.90
15328;DHT22;7764;51.430;6.840;2023-04-24T10:15:24;9.90;99.90
15328;DHT22;7764;51.430;6.840;2023-04-24T10:17:52;10.10;99.90
15328;DHT22;7764;51.430;6.840;2023-04-24T10:20:20;10.30;99.90
15328;DHT22;7764;51.430;6.840;2023-04-24T10:22:49;10.40;99.90
15328;DHT22;7764;51.430;6.840;2023-04-24T10:25:20;10.50;99.90
15328;DHT22;7764;51.430;6.840;2023-04-24T10:27:50;10.50;99.90
15328;DHT22;7764;51.430;6.840;2023-04-24T10:30:17;10.50;99.90
15328;DHT22;7764;51.430;6.840;2023-04-24T10:32:45;10.30;99.90
15328;DHT22;7764;51.430;6.840;2023-04-24T10:35:13;10.30;99.90
15328;DHT22;7764;51.430;6.840;2023-04-24T10:37:44;10.30;99.90
15328;DHT22;7764;51.430;6.840;2023-04-24T10:40:17;10.20;99.90
15328;DHT22;7764;51.430;6.840;2023-04-24T10:42:52;10.40;99.90
15328;DHT22;7764;51.430;6.840;2023-04-24T10:45:20;10.40;99.90
15328;DHT22;7764;51.430;6.840;2023-04-24T10:47:57;10.30;99.90
15328;DHT22;7764;51.430;6.840;2023-04-24T10:50:27;10.50;99.90
15328;DHT22;7764;51.430;6.840;2023-04-24T10:53:05;10.40;99.90
15328;DHT22;7764;51.430;6.840;2023-04-24T10:55:43;10.50;99.90
15328;DHT22;7764;51.430;6.840;2023-04-24T10:58:12;10.40;99.90
15328;DHT22;7764;51.430;6.840;2023-04-24T11:00:41;10.50;99.90
15328;DHT22;7764;51.430;6.840;2023-04-24T11:03:23;10.60;99.90
15328;DHT22;7764;51.430;6.840;2023-04-24T11:05:52;10.60;99.90
15328;DHT22;7764;51.430;6.840;2023-04-24T11:08:25;10.70;99.90
15328;DHT22;7764;51.430;6.840;2023-04-24T11:10:58;11.00;99.90
15328;DHT22;7764;51.430;6.840;2023-04-24T11:13:27;11.30;99.90
15328;DHT22;7764;51.430;6.840;2023-04-24T11:16:20;11.40;99.90
15328;DHT22;7764;51.430;6.840;2023-04-24T11:18:50;11.50;99.90
15328;DHT22;7764;51.430;6.840;2023-04-24T11:21:20;11.20;99.90
15328;DHT22;7764;51.430;6.840;2023-04-24T11:23:47;11.00;99.90
15328;DHT22;7764;51.430;6.840;2023-04-24T11:26:18;11.10;99.90
15328;DHT22;7764;51.430;6.840;2023-04-24T11:28:50;10.90;99.90
15328;DHT22;7764;51.430;6.840;2023-04-24T11:31:39;10.90;99.90
15328;DHT22;7764;51.430;6.840;2023-04-24T11:34:09;10.90;99.90
15328;DHT22;7764;51.430;6.840;2023-04-24T11:36:36;10.90;99.90
15328;DHT22;7764;51.430;6.840;2023-04-24T11:39:03;10.90;99.90
15328;DHT22;7764;51.430;6.840;2023-04-24T11:41:31;10.80;99.90
15328;DHT22;7764;51.430;6.840;2023-04-24T11:43:59;10.80;99.90
15328;DHT22;7764;51.430;6.840;2023-04-24T11:46:28;10.90;99.90
15328;DHT22;7764;51.430;6.840;2023-04-24T11:48:55;10.90;99.90
15328;DHT22;7764;51.430;6.840;2023-04-24T11:51:23;11.10;99.90
15328;DHT22;7764;51.430;6.840;2023-04-24T11:53:50;11.30;99.90
15328;DHT22;7764;51.430;6.840;2023-04-24T11:56:18;11.40;99.90
15328;DHT22;7764;51.430;6.840;2023-04-24T11:58:46;11.40;99.90
15328;DHT22;7764;51.430;6.840;2023-04-24T12:01:14;11.50;99.90
15328;DHT22;7764;51.430;6.840;2023-04-24T12:03:41;11.60;99.90
15328;DHT22;7764;51.430;6.840;2023-04-24T12:06:12;11.80;99.90
15328;DHT22;7764;51.430;6.840;2023-04-24T12:08:39;11.90;99.90
15328;DHT22;7764;51.430;6.840;2023-04-24T12:11:07;12.00;99.90
15328;DHT22;7764;51.430;6.840;2023-04-24T12:13:34;11.80;99.90
15328;DHT22;7764;51.430;6.840;2023-04-24T12:16:02;11.70;99.90
15328;DHT22;7764;51.430;6.840;2023-04-24T12:18:31;11.70;99.90
15328;DHT22;7764;51.430;6.840;2023-04-24T12:21:19;11.70;99.90
15328;DHT22;7764;51.430;6.840;2023-04-24T12:23:47;11.60;99.90
15328;DHT22;7764;51.430;6.840;2023-04-24T12:26:16;11.40;99.90
15328;DHT22;7764;51.430;6.840;2023-04-24T12:28:46;11.40;99.90
15328;DHT22;7764;51.430;6.840;2023-04-24T12:31:14;11.40;99.90
15328;DHT22;7764;51.430;6.840;2023-04-24T12:33:43;11.40;99.90
15328;DHT22;7764;51.430;6.840;2023-04-24T12:36:10;11.40;99.90
15328;DHT22;7764;51.430;6.840;2023-04-24T12:38:39;11.50;99.90
15328;DHT22;7764;51.430;6.840;2023-04-24T12:41:07;11.50;99.90
15328;DHT22;7764;51.430;6.840;2023-04-24T12:43:35;11.40;99.90
15328;DHT22;7764;51.430;6.840;2023-04-24T12:46:02;11.50;99.90
15328;DHT22;7764;51.430;6.840;2023-04-24T12:48:30;11.60;99.90
15328;DHT22;7764;51.430;6.840;2023-04-24T12:50:59;11.70;99.90
15328;DHT22;7764;51.430;6.840;2023-04-24T12:53:27;11.90;99.90
15328;DHT22;7764;51.430;6.840;2023-04-24T12:55:56;11.90;99.90
15328;DHT22;7764;51.430;6.840;2023-04-24T12:58:23;12.10;99.90
15328;DHT22;7764;51.430;6.840;2023-04-24T13:00:50;12.20;99.90
15328;DHT22;7764;51.430;6.840;2023-04-24T13:03:18;12.30;99.90
15328;DHT22;7764;51.430;6.840;2023-04-24T13:05:45;12.30;99.90
15328;DHT22;7764;51.430;6.840;2023-04-24T13:08:13;11.90;99.90
15328;DHT22;7764;51.430;6.840;2023-04-24T13:10:40;11.90;99.90
15328;DHT22;7764;51.430;6.840;2023-04-24T13:13:07;11.80;99.90
15328;DHT22;7764;51.430;6.840;2023-04-24T13:15:34;11.80;99.90
15328;DHT22;7764;51.430;6.840;2023-04-24T13:18:01;11.80;99.90
15328;DHT22;7764;51.430;6.840;2023-04-24T13:20:28;11.80;99.90
15328;DHT22;7764;51.430;6.840;2023-04-24T13:22:55;11.80;99.90
15328;DHT22;7764;51.430;6.840;2023-04-24T13:25:23;11.90;99.90
15328;DHT22;7764;51.430;6.840;2023-04-24T13:27:50;11.80;99.90
15328;DHT22;7764;51.430;6.840;2023-04-24T13:30:17;11.90;99.90
15328;DHT22;7764;51.430;6.840;2023-04-24T13:32:44;12.00;99.90
15328;DHT22;7764;51.430;6.840;2023-04-24T13:35:11;11.90;99.90
15328;DHT22;7764;51.430;6.840;2023-04-24T13:37:38;11.90;99.90
15328;DHT22;7764;51.430;6.840;2023-04-24T13:40:05;11.80;99.90
15328;DHT22;7764;51.430;6.840;2023-04-24T13:42:34;11.80;99.90
15328;DHT22;7764;51.430;6.840;2023-04-24T13:45:01;12.00;99.90
15328;DHT22;7764;51.430;6.840;2023-04-24T13:47:28;12.00;99.90
15328;DHT22;7764;51.430;6.840;2023-04-24T13:49:55;12.10;99.90
15328;DHT22;7764;51.430;6.840;2023-04-24T13:52:22;12.00;99.90
15328;DHT22;7764;51.430;6.840;2023-04-24T13:54:49;12.00;99.90
15328;DHT22;7764;51.430;6.840;2023-04-24T13:57:16;12.10;99.90
15328;DHT22;7764;51.430;6.840;2023-04-24T13:59:45;12.10;99.90
15328;DHT22;7764;51.430;6.840;2023-04-24T14:02:11;12.10;99.90
15328;DHT22;7764;51.430;6.840;2023-04-24T14:04:38;12.20;99.90
15328;DHT22;7764;51.430;6.840;2023-04-24T14:07:05;12.60;99.90
15328;DHT22;7764;51.430;6.840;2023-04-24T14:09:33;12.70;99.90
15328;DHT22;7764;51.430;6.840;2023-04-24T14:12:00;12.70;99.90
15328;DHT22;7764;51.430;6.840;2023-04-24T14:14:27;12.50;99.90
15328;DHT22;7764;51.430;6.840;2023-04-24T14:16:56;12.50;99.90
15328;DHT22;7764;51.430;6.840;2023-04-24T14:19:23;12.60;99.90
15328;DHT22;7764;51.430;6.840;2023-04-24T14:21:50;12.70;99.90
15328;DHT22;7764;51.430;6.840;2023-04-24T14:24:18;12.80;99.90
15328;DHT22;7764;51.430;6.840;2023-04-24T14:26:45;12.70;99.90
15328;DHT22;7764;51.430;6.840;2023-04-24T14:29:11;12.50;99.90
15328;DHT22;7764;51.430;6.840;2023-04-24T14:31:38;12.60;99.90
15328;DHT22;7764;51.430;6.840;2023-04-24T14:34:07;12.40;99.90
15328;DHT22;7764;51.430;6.840;2023-04-24T14:36:34;12.30;99.90
15328;DHT22;7764;51.430;6.840;2023-04-24T14:39:01;12.20;99.90
15328;DHT22;7764;51.430;6.840;2023-04-24T14:41:32;12.20;99.90
15328;DHT22;7764;51.430;6.840;2023-04-24T14:44:01;12.10;99.90
15328;DHT22;7764;51.430;6.840;2023-04-24T14:46:28;12.00;99.90
15328;DHT22;7764;51.430;6.840;2023-04-24T14:48:55;11.80;99.90
15328;DHT22;7764;51.430;6.840;2023-04-24T14:51:24;11.70;99.90
15328;DHT22;7764;51.430;6.840;2023-04-24T14:53:51;11.70;99.90
15328;DHT22;7764;51.430;6.840;2023-04-24T14:56:17;11.70;99.90
15328;DHT22;7764;51.430;6.840;2023-04-24T14:58:44;11.60;99.90
15328;DHT22;7764;51.430;6.840;2023-04-24T15:01:11;11.60;99.90
15328;DHT22;7764;51.430;6.840;2023-04-24T15:03:38;11.60;99.90
15328;DHT22;7764;51.430;6.840;2023-04-24T15:06:05;11.70;99.90
15328;DHT22;7764;51.430;6.840;2023-04-24T15:08:34;11.80;99.90
15328;DHT22;7764;51.430;6.840;2023-04-24T15:11:01;11.80;99.90
15328;DHT22;7764;51.430;6.840;2023-04-24T15:13:28;11.90;99.90
15328;DHT22;7764;51.430;6.840;2023-04-24T15:15:55;12.00;99.90
15328;DHT22;7764;51.430;6.840;2023-04-24T15:18:22;12.20;99.90
15328;DHT22;7764;51.430;6.840;2023-04-24T15:20:48;12.20;99.90
15328;DHT22;7764;51.430;6.840;2023-04-24T15:23:15;12.30;99.90
15328;DHT22;7764;51.430;6.840;2023-04-24T15:25:43;12.40;99.90
15328;DHT22;7764;51.430;6.840;2023-04-24T15:28:10;12.50;99.90
15328;DHT22;7764;51.430;6.840;2023-04-24T15:30:37;12.50;99.90
15328;DHT22;7764;51.430;6.840;2023-04-24T15:33:04;12.70;99.90
15328;DHT22;7764;51.430;6.840;2023-04-24T15:35:31;12.70;99.90
15328;DHT22;7764;51.430;6.840;2023-04-24T15:37:58;12.70;99.90
15328;DHT22;7764;51.430;6.840;2023-04-24T15:40:25;12.60;99.90
15328;DHT22;7764;51.430;6.840;2023-04-24T15:42:53;12.60;99.90
15328;DHT22;7764;51.430;6.840;2023-04-24T15:45:20;12.60;99.90
15328;DHT22;7764;51.430;6.840;2023-04-24T15:47:47;12.60;99.90
15328;DHT22;7764;51.430;6.840;2023-04-24T15:50:14;12.50;99.90
15328;DHT22;7764;51.430;6.840;2023-04-24T15:52:41;12.30;99.90